Ilyas Efendiyev — 9HES8 — position and weather

sailwx.info

Track history (hours):
 
Tides and Currents Weather Stations Pressure Air Temp Water Temp Dewpoint Dewpoint Depression Visibility Wind Speed Wind Dir Waves Ship Positions

Ilyas Efendiyev

Last reported at 2017-Feb-22 03:33 UTC. Time now 2017-Feb-22 04:07 UTC.
Position N 51°09' E 003°48'.

Length 140 m; draft 3.7 m.

Type: Cargo ship. MMSI: 215901000.

Date/timePositionNaut miles runAvg speedWind from/ knotsBaromVisibWave heightAir tempDewpointWater temp
2017-Feb-22 03:33N 51°09' E 003°48'0 0.0
2017-Feb-22 02:33N 51°09' E 003°48'0 0.0
2017-Feb-22 01:33N 51°09' E 003°48'0 0.0
2017-Feb-22 00:33N 51°09' E 003°48'0 0.0
2017-Feb-21 23:33N 51°09' E 003°48'0 0.0
2017-Feb-21 22:34N 51°09' E 003°48'0 0.0
2017-Feb-21 21:33N 51°09' E 003°48'0 0.0
2017-Feb-21 20:34N 51°09' E 003°48'0 0.0
2017-Feb-21 19:34N 51°09' E 003°48'0 0.0
2017-Feb-21 18:33N 51°09' E 003°48'0 0.0
2017-Feb-21 17:34N 51°09' E 003°48'0 0.0
2017-Feb-21 16:33N 51°09' E 003°48'0 0.0
2017-Feb-21 15:33N 51°09' E 003°48'0 0.0
2017-Feb-21 14:34N 51°09' E 003°48'0 0.0
2017-Feb-21 13:34N 51°09' E 003°48'0 0.0
2017-Feb-21 12:34N 51°09' E 003°48'0 0.0
2017-Feb-21 11:33N 51°09' E 003°48'0 0.0
2017-Feb-21 10:33N 51°09' E 003°48'0 0.0
2017-Feb-21 09:34N 51°09' E 003°48'0 0.0
2017-Feb-21 08:33N 51°09' E 003°48'0 0.0
2017-Feb-21 07:33N 51°09' E 003°48'0 0.0
2017-Feb-21 06:33N 51°09' E 003°48'0 0.0
2017-Feb-21 05:33N 51°09' E 003°48'0 0.0
2017-Feb-21 04:34N 51°09' E 003°48'0 0.0
2017-Feb-21 03:34N 51°09' E 003°48'0 0.0
2017-Feb-21 02:33N 51°09' E 003°48'0 0.0
2017-Feb-21 01:33N 51°09' E 003°48'0 0.0
2017-Feb-21 00:33N 51°09' E 003°48'0 0.0
2017-Feb-20 23:33N 51°09' E 003°48'0 0.0
2017-Feb-20 22:33N 51°09' E 003°48'0 0.0
2017-Feb-20 21:33N 51°09' E 003°48'0 0.0
2017-Feb-20 20:33N 51°09' E 003°48'0 0.0
2017-Feb-20 19:33N 51°09' E 003°48'0 0.0
2017-Feb-20 18:33N 51°09' E 003°48'0 0.0
2017-Feb-20 17:33N 51°09' E 003°48'0 0.0
2017-Feb-20 16:33N 51°09' E 003°48'0 0.0
2017-Feb-20 15:34N 51°09' E 003°48'0 0.0
2017-Feb-20 14:33N 51°09' E 003°48'0 0.0
2017-Feb-20 13:33N 51°09' E 003°48'0 0.0
2017-Feb-20 12:33N 51°09' E 003°48'0 0.0
2017-Feb-20 11:33N 51°09' E 003°48'0 0.0
2017-Feb-20 10:34N 51°09' E 003°48'0 0.0
2017-Feb-20 09:34N 51°09' E 003°48'0 0.0
2017-Feb-20 08:33N 51°09' E 003°48'0 0.0
2017-Feb-20 07:33N 51°09' E 003°48'0 0.0
2017-Feb-20 06:33N 51°09' E 003°48'0 0.0
2017-Feb-20 05:34N 51°09' E 003°48'0 0.0
2017-Feb-20 04:33N 51°09' E 003°48'0 0.0
2017-Feb-20 03:33N 51°09' E 003°48'0 0.0
2017-Feb-20 02:34N 51°09' E 003°48'0 0.0
2017-Feb-20 01:34N 51°09' E 003°48'0 0.0
2017-Feb-20 00:33N 51°09' E 003°48'0 0.0
2017-Feb-19 23:33N 51°09' E 003°48'0 0.0
2017-Feb-19 22:34N 51°09' E 003°48'0 0.0
2017-Feb-19 21:34N 51°09' E 003°48'5 4.8
2017-Feb-19 20:34N 51°13' E 003°48'6 6.2
2017-Feb-19 19:33N 51°20' E 003°49'2 1.6
2017-Feb-19 18:33N 51°21' E 003°48'9 9.2
2017-Feb-19 17:33N 51°25' E 003°34'10 9.6
2017-Feb-19 16:34N 51°24' E 003°19'1110.8
2017-Feb-19 15:34N 51°22' E 003°02'10 9.7
2017-Feb-19 14:33N 51°21' E 002°46'6 5.9
2017-Feb-19 13:31N 51°20' E 002°37'0 0.0
2017-Feb-19 12:32N 51°20' E 002°37'0 0.1
2017-Feb-19 11:31N 51°20' E 002°37'0 0.1
2017-Feb-19 10:33N 51°20' E 002°37'0 0.4
2017-Feb-19 09:33N 51°21' E 002°37'9 9.0
2017-Feb-19 08:33N 51°20' E 002°22'1010.4
2017-Feb-19 07:33N 51°15' E 002°08'8 8.0
2017-Feb-19 06:34N 51°11' E 001°57'1111.4
2017-Feb-19 05:34N 51°04' E 001°43'6410.5
2017-Feb-18 23:26N 50°23' E 000°24'1110.1
2017-Feb-18 22:22N 50°20' E 000°08'8 9.6
2017-Feb-18 21:33N 50°18' W 000°04'27 8.7
2017-Feb-18 18:25N 50°11' W 000°45'7 8.2
2017-Feb-18 17:33N 50°10' W 000°56'9 8.8
2017-Feb-18 16:34N 50°08' W 001°09'10 9.6
2017-Feb-18 15:34N 50°05' W 001°24'1110.6
2017-Feb-18 14:33N 50°02' W 001°39'1211.6
2017-Feb-18 13:34N 49°59' W 001°57'2512.0
2017-Feb-18 11:27N 49°53' W 002°35'1011.2
2017-Feb-18 10:33N 49°50' W 002°50'1310.7
2017-Feb-18 09:20N 49°43' W 003°07'810.4
2017-Feb-18 08:34N 49°39' W 003°18'66 9.5
2017-Feb-18 01:33N 49°06' W 004°47'9 9.1
2017-Feb-18 00:33N 49°02' W 004°59'9 9.4
2017-Feb-17 23:33N 48°57' W 005°11'11 9.8
2017-Feb-17 22:24N 48°52' W 005°26'41 4.2
2017-Feb-17 12:33N 48°12' W 005°10'1010.0
2017-Feb-17 11:33N 48°14' W 004°55'1010.2
2017-Feb-17 10:33N 48°18' W 004°41'10 9.5
2017-Feb-17 09:33N 48°23' W 004°28'0 0.1
2017-Feb-17 08:33N 48°23' W 004°28'0 0.0
2017-Feb-17 07:33N 48°23' W 004°28'0 0.0
2017-Feb-17 06:32N 48°23' W 004°28'0 0.0
2017-Feb-17 05:32N 48°23' W 004°28'0 0.0
2017-Feb-17 04:32N 48°23' W 004°28'0 0.0
2017-Feb-17 03:33N 48°23' W 004°28'0 0.0
2017-Feb-17 02:32N 48°23' W 004°28'0 0.0
2017-Feb-17 01:33N 48°23' W 004°28'0 0.0
2017-Feb-17 00:31N 48°23' W 004°28'0 0.0
2017-Feb-16 23:31N 48°23' W 004°28'0 0.0
2017-Feb-16 22:32N 48°23' W 004°28'0 0.0
2017-Feb-16 21:33N 48°23' W 004°28'0 0.0
2017-Feb-16 20:33N 48°23' W 004°28'0 0.0
2017-Feb-16 19:29N 48°23' W 004°28'0 0.0
2017-Feb-16 18:31N 48°23' W 004°28'0 0.0
2017-Feb-16 17:33N 48°23' W 004°28'0 0.0
2017-Feb-16 16:31N 48°23' W 004°28'0 0.0
2017-Feb-16 15:33N 48°23' W 004°28'0 0.0
2017-Feb-16 14:31N 48°23' W 004°28'0 0.0
2017-Feb-16 13:31N 48°23' W 004°28'0 0.0
2017-Feb-16 12:33N 48°23' W 004°28'0 0.0
2017-Feb-16 11:33N 48°23' W 004°28'0 0.0
2017-Feb-16 10:31N 48°23' W 004°28'0 0.0
2017-Feb-16 09:31N 48°23' W 004°28'0 0.0
2017-Feb-16 08:31N 48°23' W 004°28'0 0.0
2017-Feb-16 07:32N 48°23' W 004°28'0 0.0
2017-Feb-16 06:32N 48°23' W 004°28'0 0.0
2017-Feb-16 05:32N 48°23' W 004°28'0 0.0
2017-Feb-16 04:33N 48°23' W 004°28'0 0.0
2017-Feb-16 03:27N 48°23' W 004°28'0 0.0
2017-Feb-16 02:33N 48°23' W 004°28'0 0.0
2017-Feb-16 01:33N 48°23' W 004°28'0 0.0
2017-Feb-16 00:32N 48°23' W 004°28'0 0.0
2017-Feb-15 23:29N 48°23' W 004°28'0 0.0
2017-Feb-15 22:26N 48°23' W 004°28'0 0.0
2017-Feb-15 21:32N 48°23' W 004°28'0 0.0
2017-Feb-15 20:32N 48°23' W 004°28'0 0.0
2017-Feb-15 19:31N 48°23' W 004°28'0 0.0
2017-Feb-15 18:28N 48°23' W 004°28'0 0.0
2017-Feb-15 17:32N 48°23' W 004°28'0 0.0
2017-Feb-15 16:33N 48°23' W 004°28'0 0.0
2017-Feb-15 15:31N 48°23' W 004°28'0 0.0
2017-Feb-15 14:33N 48°23' W 004°28'0 0.0
2017-Feb-15 13:33N 48°23' W 004°28'0 0.0
2017-Feb-15 12:31N 48°23' W 004°28'0 0.0
2017-Feb-15 11:31N 48°23' W 004°28'0 0.0
2017-Feb-15 10:31N 48°23' W 004°28'0 0.0
2017-Feb-15 09:33N 48°23' W 004°28'0 0.0
2017-Feb-15 08:31N 48°23' W 004°28'0 0.0
2017-Feb-15 07:33N 48°23' W 004°28'0 0.0
2017-Feb-15 06:33N 48°23' W 004°28'0 0.0
2017-Feb-15 05:33N 48°23' W 004°28'0 0.0
2017-Feb-15 04:33N 48°23' W 004°28'0 0.0
2017-Feb-15 03:33N 48°23' W 004°28'0 0.0
2017-Feb-15 02:33N 48°23' W 004°28'0 0.0
2017-Feb-15 01:31N 48°23' W 004°28'0 0.0
2017-Feb-15 00:31N 48°23' W 004°28'0 0.0
2017-Feb-14 23:33N 48°23' W 004°28'0 0.0
2017-Feb-14 22:33N 48°23' W 004°28'0 0.0
2017-Feb-14 21:31N 48°23' W 004°28'0 0.0
2017-Feb-14 20:31N 48°23' W 004°28'0 0.0
2017-Feb-14 19:32N 48°23' W 004°28'0 0.0
2017-Feb-14 18:32N 48°23' W 004°28'0 0.0
2017-Feb-14 17:33N 48°23' W 004°28'0 0.0
2017-Feb-14 16:32N 48°23' W 004°28'0 0.0
2017-Feb-14 15:25N 48°23' W 004°28'0 0.0
2017-Feb-14 14:33N 48°23' W 004°28'0 0.0
2017-Feb-14 13:32N 48°23' W 004°28'0 0.0
2017-Feb-14 12:32N 48°23' W 004°28'0 0.2
2017-Feb-14 11:34N 48°23' W 004°28'6 6.2
2017-Feb-14 10:34N 48°20' W 004°37'5 4.7
2017-Feb-14 09:34N 48°18' W 004°43'1 1.2
2017-Feb-14 08:33N 48°18' W 004°45'0 0.1
2017-Feb-14 07:32N 48°18' W 004°45'0 0.0
2017-Feb-14 06:32N 48°19' W 004°45'0 0.0
2017-Feb-14 05:33N 48°19' W 004°45'0 0.0
2017-Feb-14 04:33N 48°19' W 004°45'0 0.0
2017-Feb-14 03:31N 48°19' W 004°45'0 0.0
2017-Feb-14 02:31N 48°19' W 004°45'0 0.0
2017-Feb-14 01:31N 48°19' W 004°45'0 0.1
2017-Feb-14 00:31N 48°19' W 004°45'0 0.0
2017-Feb-13 23:31N 48°19' W 004°45'0 0.0
2017-Feb-13 22:32N 48°19' W 004°45'0 0.0
2017-Feb-13 21:29N 48°19' W 004°45'0 0.0
2017-Feb-13 20:32N 48°19' W 004°45'0 0.0
2017-Feb-13 19:32N 48°19' W 004°45'0 0.0
2017-Feb-13 18:31N 48°19' W 004°45'0 0.0
2017-Feb-13 17:29N 48°19' W 004°45'0 0.0
2017-Feb-13 16:32N 48°19' W 004°45'0 0.0
2017-Feb-13 15:32N 48°19' W 004°45'0 0.0
2017-Feb-13 14:26N 48°19' W 004°45'0 0.0
2017-Feb-13 13:32N 48°19' W 004°45'0 0.0
2017-Feb-13 12:32N 48°19' W 004°45'0 0.0
2017-Feb-13 11:33N 48°19' W 004°45'0 0.0
2017-Feb-13 10:32N 48°19' W 004°45'0 0.0
2017-Feb-13 09:32N 48°19' W 004°45'0 0.0
2017-Feb-13 08:33N 48°19' W 004°45'0 0.0
2017-Feb-13 07:33N 48°19' W 004°45'0 0.0
2017-Feb-13 06:33N 48°19' W 004°45'0 0.0
2017-Feb-13 05:33N 48°19' W 004°45'0 0.0
2017-Feb-13 04:31N 48°19' W 004°45'0 0.0
2017-Feb-13 03:31N 48°19' W 004°45'0 0.0
2017-Feb-13 02:31N 48°19' W 004°45'0 0.0
2017-Feb-13 01:31N 48°19' W 004°45'0 0.0
2017-Feb-13 00:31N 48°19' W 004°45'0 0.0
2017-Feb-12 23:32N 48°18' W 004°45'0 0.0
2017-Feb-12 22:31N 48°18' W 004°45'0 0.0
2017-Feb-12 21:32N 48°18' W 004°45'0 0.0
2017-Feb-12 20:33N 48°18' W 004°45'0 0.0
2017-Feb-12 19:33N 48°18' W 004°45'0 0.0
2017-Feb-12 18:26N 48°18' W 004°45'0 0.0
2017-Feb-12 17:31N 48°18' W 004°45'0 0.0
2017-Feb-12 16:31N 48°18' W 004°45'0 0.0
2017-Feb-12 15:31N 48°18' W 004°45'0 0.0
2017-Feb-12 14:31N 48°18' W 004°45'0 0.0
2017-Feb-12 13:32N 48°18' W 004°45'0 0.0
2017-Feb-12 12:32N 48°18' W 004°45'0 0.0
2017-Feb-12 11:32N 48°18' W 004°45'0 0.0
2017-Feb-12 10:32N 48°18' W 004°45'0 0.0
2017-Feb-12 09:32N 48°18' W 004°45'0 0.0
2017-Feb-12 08:33N 48°18' W 004°45'0 0.0
2017-Feb-12 07:33N 48°18' W 004°45'0 0.0
2017-Feb-12 06:31N 48°18' W 004°45'0 0.0
2017-Feb-12 05:33N 48°18' W 004°45'1 1.2
2017-Feb-12 04:33N 48°18' W 004°47'9 9.3
2017-Feb-12 03:33N 48°13' W 004°58'  
Track history (hours):
 
Tides and Currents Weather Stations Pressure Air Temp Water Temp Dewpoint Dewpoint Depression Visibility Wind Speed Wind Dir Waves Ship Positions

Ilyas Efendiyev

Last reported at 2017-Feb-22 03:33 UTC. Time now 2017-Feb-22 04:07 UTC.
Position N 51°09' E 003°48'.

Length 140 m; draft 3.7 m.

Type: Cargo ship. MMSI: 215901000.

Date/timePositionNaut miles runAvg speedWind from/ knotsBaromVisibWave heightAir tempDewpointWater temp
2017-Feb-22 03:33N 51°09' E 003°48'0 0.0
2017-Feb-22 02:33N 51°09' E 003°48'0 0.0
2017-Feb-22 01:33N 51°09' E 003°48'0 0.0
2017-Feb-22 00:33N 51°09' E 003°48'0 0.0
2017-Feb-21 23:33N 51°09' E 003°48'0 0.0
2017-Feb-21 22:34N 51°09' E 003°48'0 0.0
2017-Feb-21 21:33N 51°09' E 003°48'0 0.0
2017-Feb-21 20:34N 51°09' E 003°48'0 0.0
2017-Feb-21 19:34N 51°09' E 003°48'0 0.0
2017-Feb-21 18:33N 51°09' E 003°48'0 0.0
2017-Feb-21 17:34N 51°09' E 003°48'0 0.0
2017-Feb-21 16:33N 51°09' E 003°48'0 0.0
2017-Feb-21 15:33N 51°09' E 003°48'0 0.0
2017-Feb-21 14:34N 51°09' E 003°48'0 0.0
2017-Feb-21 13:34N 51°09' E 003°48'0 0.0
2017-Feb-21 12:34N 51°09' E 003°48'0 0.0
2017-Feb-21 11:33N 51°09' E 003°48'0 0.0
2017-Feb-21 10:33N 51°09' E 003°48'0 0.0
2017-Feb-21 09:34N 51°09' E 003°48'0 0.0
2017-Feb-21 08:33N 51°09' E 003°48'0 0.0
2017-Feb-21 07:33N 51°09' E 003°48'0 0.0
2017-Feb-21 06:33N 51°09' E 003°48'0 0.0
2017-Feb-21 05:33N 51°09' E 003°48'0 0.0
2017-Feb-21 04:34N 51°09' E 003°48'0 0.0
2017-Feb-21 03:34N 51°09' E 003°48'0 0.0
2017-Feb-21 02:33N 51°09' E 003°48'0 0.0
2017-Feb-21 01:33N 51°09' E 003°48'0 0.0
2017-Feb-21 00:33N 51°09' E 003°48'0 0.0
2017-Feb-20 23:33N 51°09' E 003°48'0 0.0
2017-Feb-20 22:33N 51°09' E 003°48'0 0.0
2017-Feb-20 21:33N 51°09' E 003°48'0 0.0
2017-Feb-20 20:33N 51°09' E 003°48'0 0.0
2017-Feb-20 19:33N 51°09' E 003°48'0 0.0
2017-Feb-20 18:33N 51°09' E 003°48'0 0.0
2017-Feb-20 17:33N 51°09' E 003°48'0 0.0
2017-Feb-20 16:33N 51°09' E 003°48'0 0.0
2017-Feb-20 15:34N 51°09' E 003°48'0 0.0
2017-Feb-20 14:33N 51°09' E 003°48'0 0.0
2017-Feb-20 13:33N 51°09' E 003°48'0 0.0
2017-Feb-20 12:33N 51°09' E 003°48'0 0.0
2017-Feb-20 11:33N 51°09' E 003°48'0 0.0
2017-Feb-20 10:34N 51°09' E 003°48'0 0.0
2017-Feb-20 09:34N 51°09' E 003°48'0 0.0
2017-Feb-20 08:33N 51°09' E 003°48'0 0.0
2017-Feb-20 07:33N 51°09' E 003°48'0 0.0
2017-Feb-20 06:33N 51°09' E 003°48'0 0.0
2017-Feb-20 05:34N 51°09' E 003°48'0 0.0
2017-Feb-20 04:33N 51°09' E 003°48'0 0.0
2017-Feb-20 03:33N 51°09' E 003°48'0 0.0
2017-Feb-20 02:34N 51°09' E 003°48'0 0.0
2017-Feb-20 01:34N 51°09' E 003°48'0 0.0
2017-Feb-20 00:33N 51°09' E 003°48'0 0.0
2017-Feb-19 23:33N 51°09' E 003°48'0 0.0
2017-Feb-19 22:34N 51°09' E 003°48'0 0.0
2017-Feb-19 21:34N 51°09' E 003°48'5 4.8
2017-Feb-19 20:34N 51°13' E 003°48'6 6.2
2017-Feb-19 19:33N 51°20' E 003°49'2 1.6
2017-Feb-19 18:33N 51°21' E 003°48'9 9.2
2017-Feb-19 17:33N 51°25' E 003°34'10 9.6
2017-Feb-19 16:34N 51°24' E 003°19'1110.8
2017-Feb-19 15:34N 51°22' E 003°02'10 9.7
2017-Feb-19 14:33N 51°21' E 002°46'6 5.9
2017-Feb-19 13:31N 51°20' E 002°37'0 0.0
2017-Feb-19 12:32N 51°20' E 002°37'0 0.1
2017-Feb-19 11:31N 51°20' E 002°37'0 0.1
2017-Feb-19 10:33N 51°20' E 002°37'0 0.4
2017-Feb-19 09:33N 51°21' E 002°37'9 9.0
2017-Feb-19 08:33N 51°20' E 002°22'1010.4
2017-Feb-19 07:33N 51°15' E 002°08'8 8.0
2017-Feb-19 06:34N 51°11' E 001°57'1111.4
2017-Feb-19 05:34N 51°04' E 001°43'6410.5
2017-Feb-18 23:26N 50°23' E 000°24'1110.1
2017-Feb-18 22:22N 50°20' E 000°08'8 9.6
2017-Feb-18 21:33N 50°18' W 000°04'27 8.7
2017-Feb-18 18:25N 50°11' W 000°45'7 8.2
2017-Feb-18 17:33N 50°10' W 000°56'9 8.8
2017-Feb-18 16:34N 50°08' W 001°09'10 9.6
2017-Feb-18 15:34N 50°05' W 001°24'1110.6
2017-Feb-18 14:33N 50°02' W 001°39'1211.6
2017-Feb-18 13:34N 49°59' W 001°57'2512.0
2017-Feb-18 11:27N 49°53' W 002°35'1011.2
2017-Feb-18 10:33N 49°50' W 002°50'1310.7
2017-Feb-18 09:20N 49°43' W 003°07'810.4
2017-Feb-18 08:34N 49°39' W 003°18'66 9.5
2017-Feb-18 01:33N 49°06' W 004°47'9 9.1
2017-Feb-18 00:33N 49°02' W 004°59'9 9.4
2017-Feb-17 23:33N 48°57' W 005°11'11 9.8
2017-Feb-17 22:24N 48°52' W 005°26'41 4.2
2017-Feb-17 12:33N 48°12' W 005°10'1010.0
2017-Feb-17 11:33N 48°14' W 004°55'1010.2
2017-Feb-17 10:33N 48°18' W 004°41'10 9.5
2017-Feb-17 09:33N 48°23' W 004°28'0 0.1
2017-Feb-17 08:33N 48°23' W 004°28'0 0.0
2017-Feb-17 07:33N 48°23' W 004°28'0 0.0
2017-Feb-17 06:32N 48°23' W 004°28'0 0.0
2017-Feb-17 05:32N 48°23' W 004°28'0 0.0
2017-Feb-17 04:32N 48°23' W 004°28'0 0.0
2017-Feb-17 03:33N 48°23' W 004°28'0 0.0
2017-Feb-17 02:32N 48°23' W 004°28'0 0.0
2017-Feb-17 01:33N 48°23' W 004°28'0 0.0
2017-Feb-17 00:31N 48°23' W 004°28'0 0.0
2017-Feb-16 23:31N 48°23' W 004°28'0 0.0
2017-Feb-16 22:32N 48°23' W 004°28'0 0.0
2017-Feb-16 21:33N 48°23' W 004°28'0 0.0
2017-Feb-16 20:33N 48°23' W 004°28'0 0.0
2017-Feb-16 19:29N 48°23' W 004°28'0 0.0
2017-Feb-16 18:31N 48°23' W 004°28'0 0.0
2017-Feb-16 17:33N 48°23' W 004°28'0 0.0
2017-Feb-16 16:31N 48°23' W 004°28'0 0.0
2017-Feb-16 15:33N 48°23' W 004°28'0 0.0
2017-Feb-16 14:31N 48°23' W 004°28'0 0.0
2017-Feb-16 13:31N 48°23' W 004°28'0 0.0
2017-Feb-16 12:33N 48°23' W 004°28'0 0.0
2017-Feb-16 11:33N 48°23' W 004°28'0 0.0
2017-Feb-16 10:31N 48°23' W 004°28'0 0.0
2017-Feb-16 09:31N 48°23' W 004°28'0 0.0
2017-Feb-16 08:31N 48°23' W 004°28'0 0.0
2017-Feb-16 07:32N 48°23' W 004°28'0 0.0
2017-Feb-16 06:32N 48°23' W 004°28'0 0.0
2017-Feb-16 05:32N 48°23' W 004°28'0 0.0
2017-Feb-16 04:33N 48°23' W 004°28'0 0.0
2017-Feb-16 03:27N 48°23' W 004°28'0 0.0
2017-Feb-16 02:33N 48°23' W 004°28'0 0.0
2017-Feb-16 01:33N 48°23' W 004°28'0 0.0
2017-Feb-16 00:32N 48°23' W 004°28'0 0.0
2017-Feb-15 23:29N 48°23' W 004°28'0 0.0
2017-Feb-15 22:26N 48°23' W 004°28'0 0.0
2017-Feb-15 21:32N 48°23' W 004°28'0 0.0
2017-Feb-15 20:32N 48°23' W 004°28'0 0.0
2017-Feb-15 19:31N 48°23' W 004°28'0 0.0
2017-Feb-15 18:28N 48°23' W 004°28'0 0.0
2017-Feb-15 17:32N 48°23' W 004°28'0 0.0
2017-Feb-15 16:33N 48°23' W 004°28'0 0.0
2017-Feb-15 15:31N 48°23' W 004°28'0 0.0
2017-Feb-15 14:33N 48°23' W 004°28'0 0.0
2017-Feb-15 13:33N 48°23' W 004°28'0 0.0
2017-Feb-15 12:31N 48°23' W 004°28'0 0.0
2017-Feb-15 11:31N 48°23' W 004°28'0 0.0
2017-Feb-15 10:31N 48°23' W 004°28'0 0.0
2017-Feb-15 09:33N 48°23' W 004°28'0 0.0
2017-Feb-15 08:31N 48°23' W 004°28'0 0.0
2017-Feb-15 07:33N 48°23' W 004°28'0 0.0
2017-Feb-15 06:33N 48°23' W 004°28'0 0.0
2017-Feb-15 05:33N 48°23' W 004°28'0 0.0
2017-Feb-15 04:33N 48°23' W 004°28'0 0.0
2017-Feb-15 03:33N 48°23' W 004°28'0 0.0
2017-Feb-15 02:33N 48°23' W 004°28'0 0.0
2017-Feb-15 01:31N 48°23' W 004°28'0 0.0
2017-Feb-15 00:31N 48°23' W 004°28'0 0.0
2017-Feb-14 23:33N 48°23' W 004°28'0 0.0
2017-Feb-14 22:33N 48°23' W 004°28'0 0.0
2017-Feb-14 21:31N 48°23' W 004°28'0 0.0
2017-Feb-14 20:31N 48°23' W 004°28'0 0.0
2017-Feb-14 19:32N 48°23' W 004°28'0 0.0
2017-Feb-14 18:32N 48°23' W 004°28'0 0.0
2017-Feb-14 17:33N 48°23' W 004°28'0 0.0
2017-Feb-14 16:32N 48°23' W 004°28'0 0.0
2017-Feb-14 15:25N 48°23' W 004°28'0 0.0
2017-Feb-14 14:33N 48°23' W 004°28'0 0.0
2017-Feb-14 13:32N 48°23' W 004°28'0 0.0
2017-Feb-14 12:32N 48°23' W 004°28'0 0.2
2017-Feb-14 11:34N 48°23' W 004°28'6 6.2
2017-Feb-14 10:34N 48°20' W 004°37'5 4.7
2017-Feb-14 09:34N 48°18' W 004°43'1 1.2
2017-Feb-14 08:33N 48°18' W 004°45'0 0.1
2017-Feb-14 07:32N 48°18' W 004°45'0 0.0
2017-Feb-14 06:32N 48°19' W 004°45'0 0.0
2017-Feb-14 05:33N 48°19' W 004°45'0 0.0
2017-Feb-14 04:33N 48°19' W 004°45'0 0.0
2017-Feb-14 03:31N 48°19' W 004°45'0 0.0
2017-Feb-14 02:31N 48°19' W 004°45'0 0.0
2017-Feb-14 01:31N 48°19' W 004°45'0 0.1
2017-Feb-14 00:31N 48°19' W 004°45'0 0.0
2017-Feb-13 23:31N 48°19' W 004°45'0 0.0
2017-Feb-13 22:32N 48°19' W 004°45'0 0.0
2017-Feb-13 21:29N 48°19' W 004°45'0 0.0
2017-Feb-13 20:32N 48°19' W 004°45'0 0.0
2017-Feb-13 19:32N 48°19' W 004°45'0 0.0
2017-Feb-13 18:31N 48°19' W 004°45'0 0.0
2017-Feb-13 17:29N 48°19' W 004°45'0 0.0
2017-Feb-13 16:32N 48°19' W 004°45'0 0.0
2017-Feb-13 15:32N 48°19' W 004°45'0 0.0
2017-Feb-13 14:26N 48°19' W 004°45'0 0.0
2017-Feb-13 13:32N 48°19' W 004°45'0 0.0
2017-Feb-13 12:32N 48°19' W 004°45'0 0.0
2017-Feb-13 11:33N 48°19' W 004°45'0 0.0
2017-Feb-13 10:32N 48°19' W 004°45'0 0.0
2017-Feb-13 09:32N 48°19' W 004°45'0 0.0
2017-Feb-13 08:33N 48°19' W 004°45'0 0.0
2017-Feb-13 07:33N 48°19' W 004°45'0 0.0
2017-Feb-13 06:33N 48°19' W 004°45'0 0.0
2017-Feb-13 05:33N 48°19' W 004°45'0 0.0
2017-Feb-13 04:31N 48°19' W 004°45'0 0.0
2017-Feb-13 03:31N 48°19' W 004°45'0 0.0
2017-Feb-13 02:31N 48°19' W 004°45'0 0.0
2017-Feb-13 01:31N 48°19' W 004°45'0 0.0
2017-Feb-13 00:31N 48°19' W 004°45'0 0.0
2017-Feb-12 23:32N 48°18' W 004°45'0 0.0
2017-Feb-12 22:31N 48°18' W 004°45'0 0.0
2017-Feb-12 21:32N 48°18' W 004°45'0 0.0
2017-Feb-12 20:33N 48°18' W 004°45'0 0.0
2017-Feb-12 19:33N 48°18' W 004°45'0 0.0
2017-Feb-12 18:26N 48°18' W 004°45'0 0.0
2017-Feb-12 17:31N 48°18' W 004°45'0 0.0
2017-Feb-12 16:31N 48°18' W 004°45'0 0.0
2017-Feb-12 15:31N 48°18' W 004°45'0 0.0
2017-Feb-12 14:31N 48°18' W 004°45'0 0.0
2017-Feb-12 13:32N 48°18' W 004°45'0 0.0
2017-Feb-12 12:32N 48°18' W 004°45'0 0.0
2017-Feb-12 11:32N 48°18' W 004°45'0 0.0
2017-Feb-12 10:32N 48°18' W 004°45'0 0.0
2017-Feb-12 09:32N 48°18' W 004°45'0 0.0
2017-Feb-12 08:33N 48°18' W 004°45'0 0.0
2017-Feb-12 07:33N 48°18' W 004°45'0 0.0
2017-Feb-12 06:31N 48°18' W 004°45'0 0.0
2017-Feb-12 05:33N 48°18' W 004°45'1 1.2
2017-Feb-12 04:33N 48°18' W 004°47'9 9.3
2017-Feb-12 03:33N 48°13' W 004°58'  

Dump ship's entire track history